Terminal Aerodrome Forecast
Issued by NWS Goodland, KS

Home | Current Version | Previous Version | Text Only | Print | Product List | Glossary On
Versions: 1 2 3 4 5 6 7 8 9 10 11 12 13
000
FTUS43 KGLD 030520
TAFGLD
TAF
KGLD 030520Z 0306/0406 VRB05KT P6SM VCSH OVC090
     FM030900 30008KT P6SM BKN120
     FM031100 33007KT P6SM SCT120
     FM031500 34012G17KT P6SM SCT150
     FM040200 33007KT P6SM FEW250=

USA.gov is the U.S. government's official web portal to all federal, state and local government web resources and services.